createdAt,value
2018-08-12T00:00:25.620Z,0.00
2018-08-12T00:01:25.612Z,0.00
2018-08-12T00:02:25.605Z,0.00
2018-08-12T00:03:25.597Z,0.00
2018-08-12T00:04:25.591Z,0.00
2018-08-12T00:05:25.582Z,0.00
2018-08-12T00:06:25.575Z,0.00
2018-08-12T00:07:25.569Z,0.00
2018-08-12T00:08:25.560Z,0.00
2018-08-12T00:09:25.559Z,0.00
2018-08-12T00:10:25.546Z,0.00
2018-08-12T00:11:25.547Z,0.00
2018-08-12T00:12:25.529Z,0.00
2018-08-12T00:13:25.569Z,0.00
2018-08-12T00:14:25.524Z,0.00
2018-08-12T00:15:25.507Z,0.00
2018-08-12T00:16:25.500Z,0.00
2018-08-12T00:17:25.494Z,0.00
2018-08-12T00:18:25.485Z,0.00
2018-08-12T00:19:25.476Z,0.00
2018-08-12T00:20:25.469Z,0.00
2018-08-12T00:21:25.462Z,0.00
2018-08-12T00:22:25.454Z,0.00
2018-08-12T00:23:25.450Z,0.00
2018-08-12T00:24:25.439Z,0.00
2018-08-12T00:25:25.431Z,0.00
2018-08-12T00:26:25.424Z,0.00
2018-08-12T00:27:25.416Z,0.00
2018-08-12T00:28:25.409Z,0.00
2018-08-12T00:29:25.401Z,0.00
2018-08-12T00:30:25.394Z,0.00
2018-08-12T00:31:25.389Z,0.00
2018-08-12T00:32:25.379Z,0.00
2018-08-12T00:33:25.371Z,0.00
2018-08-12T00:34:25.371Z,0.00
2018-08-12T00:35:25.356Z,0.00
2018-08-12T00:36:25.351Z,0.00
2018-08-12T00:37:25.344Z,0.00
2018-08-12T00:38:25.334Z,0.00
2018-08-12T00:39:25.325Z,0.00
2018-08-12T00:40:25.318Z,0.00
2018-08-12T00:41:25.311Z,0.00
2018-08-12T00:42:25.304Z,0.00
2018-08-12T00:43:25.295Z,0.00
2018-08-12T00:44:25.288Z,0.00
2018-08-12T00:45:25.281Z,0.00
2018-08-12T00:46:25.273Z,0.00
2018-08-12T00:47:25.265Z,0.00
2018-08-12T00:48:25.258Z,0.00
2018-08-12T00:49:25.250Z,0.00
2018-08-12T00:50:25.243Z,0.00
2018-08-12T00:51:25.234Z,0.00
2018-08-12T00:52:25.228Z,0.00
2018-08-12T00:53:25.220Z,0.00
2018-08-12T00:54:25.214Z,0.00
2018-08-12T00:55:25.205Z,0.00
2018-08-12T00:56:25.199Z,0.00
2018-08-12T00:57:25.189Z,0.00
2018-08-12T00:58:25.182Z,0.00
2018-08-12T00:59:25.175Z,0.00
2018-08-12T01:00:25.166Z,0.00
2018-08-12T01:01:25.159Z,0.00
2018-08-12T01:02:25.151Z,0.00
2018-08-12T01:03:25.144Z,0.00
2018-08-12T01:04:25.136Z,0.00
2018-08-12T01:05:25.128Z,0.00
2018-08-12T01:06:25.121Z,0.00
2018-08-12T01:07:25.113Z,0.00
2018-08-12T01:08:25.106Z,0.00
2018-08-12T01:09:25.097Z,0.00
2018-08-12T01:10:25.091Z,0.00
2018-08-12T01:11:25.082Z,0.00
2018-08-12T01:12:25.075Z,0.00
2018-08-12T01:13:25.067Z,0.00
2018-08-12T01:14:25.060Z,0.00
2018-08-12T01:15:25.054Z,0.00
2018-08-12T01:16:25.044Z,0.00
2018-08-12T01:17:25.037Z,0.00
2018-08-12T01:18:25.031Z,0.00
2018-08-12T01:19:25.021Z,0.00
2018-08-12T01:20:25.014Z,0.00
2018-08-12T01:21:25.006Z,0.00
2018-08-12T01:22:24.999Z,0.00
2018-08-12T01:23:24.990Z,0.00
2018-08-12T01:24:25.031Z,0.00
2018-08-12T01:25:24.976Z,0.00
2018-08-12T01:26:24.968Z,0.00
2018-08-12T01:27:24.960Z,0.00
2018-08-12T01:28:24.952Z,0.00
2018-08-12T01:29:24.945Z,0.00
2018-08-12T01:30:24.938Z,0.00
2018-08-12T01:31:24.929Z,0.00
2018-08-12T01:32:24.922Z,0.00
2018-08-12T01:33:24.914Z,0.00
2018-08-12T01:34:24.908Z,0.00
2018-08-12T01:35:24.898Z,0.00
2018-08-12T01:36:24.891Z,0.00
2018-08-12T01:37:24.884Z,0.00
2018-08-12T01:38:24.876Z,0.00
2018-08-12T01:39:24.868Z,0.00
2018-08-12T01:40:24.864Z,0.00
2018-08-12T01:41:24.853Z,0.00
2018-08-12T01:42:24.849Z,0.00
2018-08-12T01:43:24.837Z,0.00
2018-08-12T01:44:24.830Z,0.00
2018-08-12T01:45:24.823Z,0.00
2018-08-12T01:46:24.814Z,0.00
2018-08-12T01:47:24.806Z,0.00
2018-08-12T01:48:24.803Z,0.00
2018-08-12T01:49:24.791Z,0.00
2018-08-12T01:50:24.787Z,0.00
2018-08-12T01:51:24.775Z,0.00
2018-08-12T01:52:24.767Z,0.00
2018-08-12T01:53:24.760Z,0.00
2018-08-12T01:54:24.753Z,0.00
2018-08-12T01:55:24.745Z,0.00
2018-08-12T01:56:24.737Z,0.00
2018-08-12T01:57:24.729Z,0.00
2018-08-12T01:58:24.722Z,0.00
2018-08-12T01:59:24.716Z,0.00
2018-08-12T02:00:24.706Z,0.00
2018-08-12T02:01:24.699Z,0.00
2018-08-12T02:02:24.692Z,0.00
2018-08-12T02:03:24.683Z,0.00
2018-08-12T02:04:24.682Z,0.00
2018-08-12T02:05:24.668Z,0.00
2018-08-12T02:06:24.661Z,0.00
2018-08-12T02:07:24.658Z,0.00
2018-08-12T02:08:24.646Z,0.00
2018-08-12T02:09:24.638Z,0.00
2018-08-12T02:10:24.631Z,0.00
2018-08-12T02:11:24.622Z,0.00
2018-08-12T02:12:24.616Z,0.00
2018-08-12T02:13:24.607Z,0.00
2018-08-12T02:14:24.600Z,0.00
2018-08-12T02:15:24.592Z,0.00
2018-08-12T02:16:24.584Z,0.00
2018-08-12T02:17:24.576Z,0.00
2018-08-12T02:18:24.571Z,0.00
2018-08-12T02:19:24.559Z,0.00
2018-08-12T02:20:24.552Z,0.00
2018-08-12T02:21:24.545Z,0.00
2018-08-12T02:22:24.537Z,0.00
2018-08-12T02:23:24.532Z,0.00
2018-08-12T02:24:24.521Z,0.00
2018-08-12T02:25:24.513Z,0.00
2018-08-12T02:26:24.507Z,0.00
2018-08-12T02:27:24.497Z,0.00
2018-08-12T02:28:24.490Z,0.00
2018-08-12T02:29:24.482Z,0.00
2018-08-12T02:30:24.474Z,0.00
2018-08-12T02:31:24.465Z,0.00
2018-08-12T02:32:24.472Z,0.00
2018-08-12T02:33:24.450Z,0.00
2018-08-12T02:34:24.442Z,0.00
2018-08-12T02:35:24.434Z,0.00
2018-08-12T02:36:24.428Z,0.00
2018-08-12T02:37:24.425Z,0.00
2018-08-12T02:38:24.416Z,0.00
2018-08-12T02:39:24.402Z,0.00
2018-08-12T02:40:24.394Z,0.00
2018-08-12T02:41:24.386Z,0.00
2018-08-12T02:42:24.378Z,0.00
2018-08-12T02:43:24.370Z,0.00
2018-08-12T02:44:24.362Z,0.00
2018-08-12T02:45:24.357Z,0.00
2018-08-12T02:46:24.346Z,0.00
2018-08-12T02:47:24.338Z,0.00
2018-08-12T02:48:24.332Z,0.00
2018-08-12T02:49:24.323Z,0.00
2018-08-12T02:50:24.315Z,0.00
2018-08-12T02:51:24.305Z,0.00
2018-08-12T02:52:24.298Z,0.00
2018-08-12T02:53:24.290Z,0.00
2018-08-12T02:54:24.291Z,0.00
2018-08-12T02:55:24.273Z,0.00
2018-08-12T02:56:24.269Z,0.00
2018-08-12T02:57:24.258Z,0.00
2018-08-12T02:58:24.250Z,0.00
2018-08-12T02:59:24.241Z,0.00
2018-08-12T03:00:24.233Z,0.00
2018-08-12T03:01:24.225Z,0.00
2018-08-12T03:02:24.218Z,0.00
2018-08-12T03:03:24.217Z,0.00
2018-08-12T03:04:24.212Z,0.00
2018-08-12T03:05:24.218Z,0.00
2018-08-12T03:06:24.186Z,0.00
2018-08-12T03:07:24.176Z,0.00
2018-08-12T03:08:24.169Z,0.00
2018-08-12T03:09:24.162Z,0.00
2018-08-12T03:10:24.153Z,0.00
2018-08-12T03:11:24.145Z,0.00
2018-08-12T03:12:24.138Z,0.00
2018-08-12T03:13:24.129Z,0.00
2018-08-12T03:14:24.122Z,0.00
2018-08-12T03:15:24.114Z,0.00
2018-08-12T03:16:24.106Z,0.00
2018-08-12T03:17:24.097Z,0.00
2018-08-12T03:18:24.090Z,0.00
2018-08-12T03:19:24.081Z,0.00
2018-08-12T03:20:24.074Z,0.00
2018-08-12T03:21:24.071Z,0.00
2018-08-12T03:22:24.094Z,0.00
2018-08-12T03:23:24.052Z,0.00
2018-08-12T03:24:24.042Z,0.00
2018-08-12T03:25:24.036Z,0.00
2018-08-12T03:26:24.031Z,0.00
2018-08-12T03:27:24.064Z,0.00
2018-08-12T03:28:24.011Z,0.00
2018-08-12T03:29:24.002Z,0.00
2018-08-12T03:30:24.086Z,0.00
2018-08-12T03:31:23.987Z,0.00
2018-08-12T03:32:23.980Z,0.00
2018-08-12T03:33:23.972Z,0.00
2018-08-12T03:34:23.964Z,0.00
2018-08-12T03:35:23.955Z,0.00
2018-08-12T03:36:23.949Z,0.00
2018-08-12T03:37:23.940Z,0.00
2018-08-12T03:38:23.932Z,0.00
2018-08-12T03:39:23.926Z,0.00
2018-08-12T03:40:23.916Z,0.00
2018-08-12T03:41:23.909Z,0.00
2018-08-12T03:42:23.901Z,4.00
2018-08-12T03:43:23.893Z,4.00
2018-08-12T03:44:23.885Z,4.00
2018-08-12T03:45:23.878Z,4.00
2018-08-12T03:46:23.870Z,0.00
2018-08-12T03:47:23.864Z,4.00
2018-08-12T03:48:23.855Z,4.00
2018-08-12T03:49:23.846Z,8.00
2018-08-12T03:50:23.838Z,4.00
2018-08-12T03:51:23.830Z,8.00
2018-08-12T03:52:23.822Z,4.00
2018-08-12T03:53:23.814Z,8.00
2018-08-12T03:54:23.808Z,12.00
2018-08-12T03:55:23.798Z,12.00
2018-08-12T03:56:23.790Z,12.00
2018-08-12T03:57:23.783Z,16.00
2018-08-12T03:58:23.778Z,16.00
2018-08-12T03:59:23.766Z,20.00
2018-08-12T04:00:23.759Z,24.00
2018-08-12T04:01:23.750Z,24.00
2018-08-12T04:02:23.758Z,28.00
2018-08-12T04:03:23.734Z,32.00
2018-08-12T04:04:23.727Z,36.00
2018-08-12T04:05:23.719Z,40.00
2018-08-12T04:06:23.711Z,48.00
2018-08-12T04:07:23.705Z,52.00
2018-08-12T04:08:23.694Z,60.00
2018-08-12T04:09:23.687Z,68.00
2018-08-12T04:10:23.679Z,76.00
2018-08-12T04:11:23.673Z,88.00
2018-08-12T04:12:23.663Z,100.00
2018-08-12T04:13:23.655Z,112.00
2018-08-12T04:14:23.647Z,120.00
2018-08-12T04:15:23.639Z,136.00
2018-08-12T04:16:23.635Z,156.00
2018-08-12T04:17:23.639Z,172.00
2018-08-12T04:18:23.615Z,184.00
2018-08-12T04:19:23.607Z,204.00
2018-08-12T04:20:23.599Z,224.00
2018-08-12T04:21:23.593Z,248.00
2018-08-12T04:22:23.601Z,276.00
2018-08-12T04:23:23.575Z,304.00
2018-08-12T04:24:23.568Z,336.00
2018-08-12T04:25:23.559Z,368.00
2018-08-12T04:26:23.551Z,400.00
2018-08-12T04:27:23.542Z,428.00
2018-08-12T04:28:23.534Z,460.00
2018-08-12T04:29:23.527Z,488.00
2018-08-12T04:30:23.519Z,520.00
2018-08-12T04:31:23.510Z,556.00
2018-08-12T04:32:23.503Z,588.00
2018-08-12T04:33:23.499Z,620.00
2018-08-12T04:34:23.487Z,652.00
2018-08-12T04:35:23.478Z,672.00
2018-08-12T04:36:23.470Z,692.00
2018-08-12T04:37:23.463Z,708.00
2018-08-12T04:38:23.457Z,720.00
2018-08-12T04:39:23.449Z,740.00
2018-08-12T04:40:23.442Z,768.00
2018-08-12T04:41:23.432Z,804.00
2018-08-12T04:42:23.424Z,832.00
2018-08-12T04:43:23.416Z,852.00
2018-08-12T04:44:23.409Z,888.00
2018-08-12T04:45:23.401Z,924.00
2018-08-12T04:46:23.394Z,964.00
2018-08-12T04:47:23.385Z,1004.00
2018-08-12T04:48:23.383Z,1060.00
2018-08-12T04:49:23.370Z,1116.00
2018-08-12T04:50:23.364Z,1164.00
2018-08-12T04:51:23.354Z,1180.00
2018-08-12T04:52:23.347Z,1212.00
2018-08-12T04:53:23.339Z,1248.00
2018-08-12T04:54:23.332Z,1264.00
2018-08-12T04:55:23.324Z,1272.00
2018-08-12T04:56:23.316Z,1284.00
2018-08-12T04:57:23.309Z,1280.00
2018-08-12T04:58:23.301Z,1264.00
2018-08-12T04:59:23.292Z,1284.00
2018-08-12T05:00:23.287Z,1344.00
2018-08-12T05:01:23.277Z,1352.00
2018-08-12T05:02:23.270Z,1312.00
2018-08-12T05:03:23.261Z,1272.00
2018-08-12T05:04:23.254Z,1244.00
2018-08-12T05:05:23.246Z,1236.00
2018-08-12T05:06:23.239Z,1228.00
2018-08-12T05:07:23.230Z,1216.00
2018-08-12T05:08:23.222Z,1208.00
2018-08-12T05:09:23.214Z,1204.00
2018-08-12T05:10:23.208Z,1212.00
2018-08-12T05:11:23.199Z,1224.00
2018-08-12T05:12:23.191Z,1240.00
2018-08-12T05:13:23.184Z,1260.00
2018-08-12T05:14:23.176Z,1288.00
2018-08-12T05:15:23.168Z,1316.00
2018-08-12T05:16:23.160Z,1336.00
2018-08-12T05:17:23.153Z,1348.00
2018-08-12T05:18:23.145Z,1376.00
2018-08-12T05:19:23.137Z,1412.00
2018-08-12T05:20:23.130Z,1464.00
2018-08-12T05:21:23.122Z,1508.00
2018-08-12T05:22:23.115Z,1548.00
2018-08-12T05:23:23.107Z,1580.00
2018-08-12T05:24:23.099Z,1644.00
2018-08-12T05:25:23.092Z,1688.00
2018-08-12T05:26:23.085Z,1772.00
2018-08-12T05:27:23.077Z,1836.00
2018-08-12T05:28:23.069Z,1880.00
2018-08-12T05:29:23.062Z,1908.00
2018-08-12T05:30:23.054Z,1948.00
2018-08-12T05:31:23.046Z,2032.00
2018-08-12T05:32:23.039Z,2060.00
2018-08-12T05:33:23.031Z,2168.00
2018-08-12T05:34:23.025Z,2284.00
2018-08-12T05:35:23.017Z,2396.00
2018-08-12T05:36:23.013Z,2468.00
2018-08-12T05:37:23.003Z,2452.00
2018-08-12T05:38:23.001Z,2572.00
2018-08-12T05:39:22.988Z,2632.00
2018-08-12T05:40:22.981Z,2616.00
2018-08-12T05:41:22.974Z,2616.00
2018-08-12T05:42:22.968Z,2576.00
2018-08-12T05:43:22.993Z,2648.00
2018-08-12T05:44:22.954Z,2696.00
2018-08-12T05:45:22.947Z,2752.00
2018-08-12T05:46:22.940Z,2804.00
2018-08-12T05:47:22.937Z,2860.00
2018-08-12T05:48:22.927Z,2912.00
2018-08-12T05:49:22.920Z,2956.00
2018-08-12T05:50:22.914Z,3044.00
2018-08-12T05:51:22.960Z,3124.00
2018-08-12T05:52:22.901Z,3152.00
2018-08-12T05:53:22.894Z,3212.00
2018-08-12T05:54:22.889Z,3252.00
2018-08-12T05:55:22.882Z,3316.00
2018-08-12T05:56:22.876Z,3352.00
2018-08-12T05:57:22.870Z,3388.00
2018-08-12T05:58:22.864Z,3416.00
2018-08-12T05:59:22.857Z,3444.00
2018-08-12T06:00:22.852Z,3480.00
2018-08-12T06:01:22.846Z,3496.00
2018-08-12T06:02:22.840Z,3484.00
2018-08-12T06:03:22.839Z,3424.00
2018-08-12T06:04:22.828Z,3344.00
2018-08-12T06:05:22.823Z,3572.00
2018-08-12T06:06:22.817Z,3592.00
2018-08-12T06:07:22.811Z,3656.00
2018-08-12T06:08:22.806Z,3704.00
2018-08-12T06:09:22.801Z,3640.00
2018-08-12T06:10:22.795Z,3456.00
2018-08-12T06:11:22.789Z,3620.00
2018-08-12T06:12:22.784Z,3896.00
2018-08-12T06:13:22.781Z,3980.00
2018-08-12T06:14:22.775Z,4004.00
2018-08-12T06:15:22.767Z,4032.00
2018-08-12T06:16:22.763Z,3920.00
2018-08-12T06:17:22.788Z,4184.00
2018-08-12T06:18:22.753Z,4184.00
2018-08-12T06:19:22.748Z,4252.00
2018-08-12T06:20:22.743Z,4332.00
2018-08-12T06:21:22.738Z,4404.00
2018-08-12T06:22:22.735Z,4444.00
2018-08-12T06:23:22.727Z,4472.00
2018-08-12T06:24:22.722Z,4676.00
2018-08-12T06:25:22.720Z,4660.00
2018-08-12T06:26:22.713Z,4640.00
2018-08-12T06:27:22.707Z,4904.00
2018-08-12T06:28:22.703Z,4972.00
2018-08-12T06:29:22.704Z,5056.00
2018-08-12T06:30:22.694Z,4936.00
2018-08-12T06:31:22.716Z,5248.00
2018-08-12T06:32:22.696Z,5312.00
2018-08-12T06:33:22.680Z,5416.00
2018-08-12T06:34:22.726Z,5540.00
2018-08-12T06:35:22.671Z,5656.00
2018-08-12T06:36:22.670Z,5764.00
2018-08-12T06:37:22.662Z,5912.00
2018-08-12T06:38:22.659Z,6040.00
2018-08-12T06:39:22.653Z,6196.00
2018-08-12T06:40:22.649Z,8948.00
2018-08-12T06:41:22.645Z,11408.00
2018-08-12T06:42:22.642Z,8368.00
2018-08-12T06:43:22.637Z,8552.00
2018-08-12T06:44:22.633Z,7924.00
2018-08-12T06:45:22.632Z,11488.00
2018-08-12T06:46:22.697Z,11844.00
2018-08-12T06:47:22.622Z,7532.00
2018-08-12T06:48:22.618Z,7224.00
2018-08-12T06:49:22.615Z,7656.00
2018-08-12T06:50:22.612Z,11492.00
2018-08-12T06:51:22.608Z,17664.00
2018-08-12T06:52:22.605Z,13960.00
2018-08-12T06:53:22.601Z,13724.00
2018-08-12T06:54:22.598Z,9488.00
2018-08-12T06:55:22.595Z,8936.00
2018-08-12T06:56:22.591Z,13888.00
2018-08-12T06:57:22.590Z,35744.00
2018-08-12T06:58:22.586Z,38112.00
2018-08-12T06:59:22.582Z,24928.00
2018-08-12T07:00:22.629Z,25408.00
2018-08-12T07:01:22.577Z,14944.00
2018-08-12T07:02:22.574Z,10560.00
2018-08-12T07:03:22.571Z,21280.00
2018-08-12T07:04:22.569Z,46752.00
2018-08-12T07:05:22.567Z,41792.00
2018-08-12T07:06:22.565Z,11244.00
2018-08-12T07:07:22.563Z,11584.00
2018-08-12T07:08:22.562Z,17440.00
2018-08-12T07:09:22.560Z,30400.00
2018-08-12T07:10:22.558Z,36544.00
2018-08-12T07:11:22.556Z,46336.00
2018-08-12T07:12:22.556Z,51200.00
2018-08-12T07:13:22.555Z,51552.00
2018-08-12T07:14:22.561Z,51808.00
2018-08-12T07:15:22.552Z,54976.00
2018-08-12T07:16:22.551Z,53568.00
2018-08-12T07:17:22.551Z,54848.00
2018-08-12T07:18:22.551Z,55360.00
2018-08-12T07:19:22.551Z,57984.00
2018-08-12T07:20:22.551Z,58784.00
2018-08-12T07:21:22.552Z,57408.00
2018-08-12T07:22:22.552Z,54048.00
2018-08-12T07:23:22.553Z,59392.00
2018-08-12T07:24:22.555Z,59104.00
2018-08-12T07:25:22.557Z,58752.00
2018-08-12T07:26:22.559Z,59264.00
2018-08-12T07:27:22.561Z,60320.00
2018-08-12T07:28:22.567Z,58784.00
2018-08-12T07:29:22.568Z,59072.00
2018-08-12T07:30:22.572Z,58624.00
2018-08-12T07:31:22.575Z,55744.00
2018-08-12T07:32:22.580Z,56864.00
2018-08-12T07:33:22.583Z,57056.00
2018-08-12T07:34:22.589Z,55104.00
2018-08-12T07:35:22.592Z,55392.00
2018-08-12T07:36:22.597Z,57056.00
2018-08-12T07:37:22.602Z,54112.00
2018-08-12T07:38:22.607Z,54912.00
2018-08-12T07:39:22.612Z,56256.00
2018-08-12T07:40:22.618Z,56448.00
2018-08-12T07:41:22.623Z,56768.00
2018-08-12T07:42:22.628Z,54944.00
2018-08-12T07:43:22.634Z,55712.00
2018-08-12T07:44:22.639Z,57376.00
2018-08-12T07:45:22.645Z,59360.00
2018-08-12T07:46:22.651Z,59040.00
2018-08-12T07:47:22.656Z,58880.00
2018-08-12T07:48:22.663Z,63456.00
2018-08-12T07:49:22.669Z,63296.00
2018-08-12T07:50:22.675Z,65664.00
2018-08-12T07:51:22.680Z,63968.00
2018-08-12T07:52:22.687Z,63936.00
2018-08-12T07:53:22.693Z,66528.00
2018-08-12T07:54:22.700Z,60544.00
2018-08-12T07:55:22.706Z,61824.00
2018-08-12T07:56:22.713Z,64288.00
2018-08-12T07:57:22.720Z,64928.00
2018-08-12T07:58:22.726Z,66592.00
2018-08-12T07:59:22.741Z,66368.00
2018-08-12T08:00:22.740Z,68544.00
2018-08-12T08:01:22.748Z,68608.00
2018-08-12T08:02:22.759Z,71776.00
2018-08-12T08:03:22.767Z,68704.00
2018-08-12T08:04:22.770Z,76096.00
2018-08-12T08:05:22.778Z,73792.00
2018-08-12T08:06:22.944Z,76512.00
2018-08-12T08:07:22.794Z,74848.00
2018-08-12T08:08:22.802Z,76320.00
2018-08-12T08:09:22.811Z,78816.00
2018-08-12T08:10:22.820Z,78688.00
2018-08-12T08:11:22.826Z,73056.00
2018-08-12T08:12:22.843Z,77984.00
2018-08-12T08:13:22.843Z,79296.00
2018-08-12T08:14:22.851Z,79584.00
2018-08-12T08:15:22.862Z,72320.00
2018-08-12T08:16:22.867Z,73344.00
2018-08-12T08:17:22.876Z,76160.00
2018-08-12T08:18:22.885Z,73024.00
2018-08-12T08:19:22.891Z,69824.00
2018-08-12T08:20:22.900Z,73664.00
2018-08-12T08:21:22.909Z,74752.00
2018-08-12T08:22:22.924Z,77440.00
2018-08-12T08:23:22.924Z,81248.00
2018-08-12T08:24:22.933Z,81952.00
2018-08-12T08:25:22.961Z,90240.00
2018-08-12T08:26:22.950Z,80992.00
2018-08-12T08:27:22.957Z,84544.00
2018-08-12T08:28:22.966Z,85280.00
2018-08-12T08:29:22.974Z,78528.00
2018-08-12T08:30:22.983Z,78240.00
2018-08-12T08:31:23.027Z,77760.00
2018-08-12T08:32:23.002Z,81632.00
2018-08-12T08:33:23.008Z,76160.00
2018-08-12T08:34:23.017Z,70848.00
2018-08-12T08:35:23.025Z,80192.00
2018-08-12T08:36:23.033Z,87808.00
2018-08-12T08:37:23.043Z,82560.00
2018-08-12T08:38:23.053Z,81824.00
2018-08-12T08:39:23.063Z,88128.00
2018-08-12T08:40:23.070Z,84608.00
2018-08-12T08:41:23.080Z,75840.00
2018-08-12T08:42:23.090Z,72352.00
2018-08-12T08:43:23.098Z,78528.00
2018-08-12T08:44:23.108Z,70176.00
2018-08-12T08:45:23.118Z,77088.00
2018-08-12T08:46:23.128Z,70944.00
2018-08-12T08:47:23.137Z,77600.00
2018-08-12T08:48:23.147Z,71648.00
2018-08-12T08:49:23.158Z,69632.00
2018-08-12T08:50:23.170Z,72736.00
2018-08-12T08:51:23.180Z,76864.00
2018-08-12T08:52:23.187Z,71648.00
2018-08-12T08:53:23.197Z,71040.00
2018-08-12T08:54:23.209Z,72384.00
2018-08-12T08:55:23.219Z,75680.00
2018-08-12T08:56:23.229Z,71296.00
2018-08-12T08:57:23.238Z,74528.00
2018-08-12T08:58:23.249Z,72640.00
2018-08-12T08:59:23.258Z,71072.00
2018-08-12T09:00:23.270Z,75328.00
2018-08-12T09:01:23.332Z,68192.00
2018-08-12T09:02:23.291Z,70912.00
2018-08-12T09:03:23.300Z,76864.00
2018-08-12T09:04:23.311Z,76224.00
2018-08-12T09:05:23.324Z,71040.00
2018-08-12T09:06:23.333Z,79264.00
2018-08-12T09:07:23.343Z,77984.00
2018-08-12T09:08:23.603Z,80064.00
2018-08-12T09:09:23.365Z,75040.00
2018-08-12T09:10:23.376Z,68320.00
2018-08-12T09:11:23.386Z,78144.00
2018-08-12T09:12:23.403Z,71648.00
2018-08-12T09:13:23.408Z,66848.00
2018-08-12T09:14:23.419Z,78368.00
2018-08-12T09:15:23.429Z,85440.00
2018-08-12T09:16:23.440Z,84576.00
2018-08-12T09:17:23.450Z,91008.00
2018-08-12T09:18:23.462Z,82560.00
2018-08-12T09:19:23.471Z,74656.00
2018-08-12T09:20:23.484Z,80512.00
2018-08-12T09:21:23.497Z,79904.00
2018-08-12T09:22:23.506Z,79360.00
2018-08-12T09:23:23.516Z,73536.00
2018-08-12T09:24:23.529Z,72832.00
2018-08-12T09:25:23.539Z,77952.00
2018-08-12T09:26:23.551Z,92576.00
2018-08-12T09:27:23.561Z,88960.00
2018-08-12T09:28:23.574Z,86080.00
2018-08-12T09:29:23.585Z,82016.00
2018-08-12T09:30:23.597Z,84672.00
2018-08-12T09:31:23.609Z,85600.00
2018-08-12T09:32:23.621Z,78592.00
2018-08-12T09:33:23.634Z,77568.00
2018-08-12T09:34:23.646Z,74464.00
2018-08-12T09:35:23.658Z,71008.00
2018-08-12T09:36:23.671Z,73632.00
2018-08-12T09:37:23.683Z,78624.00
2018-08-12T09:38:23.695Z,72576.00
2018-08-12T09:39:23.706Z,89952.00
2018-08-12T09:40:23.719Z,89728.00
2018-08-12T09:41:23.731Z,82080.00
2018-08-12T09:42:23.744Z,90688.00
2018-08-12T09:43:23.754Z,85632.00
2018-08-12T09:44:23.767Z,80576.00
2018-08-12T09:45:23.778Z,80576.00
2018-08-12T09:46:23.792Z,78048.00
2018-08-12T09:47:23.802Z,76160.00
2018-08-12T09:48:23.815Z,89216.00
2018-08-12T09:49:23.827Z,90080.00
2018-08-12T09:50:23.840Z,93312.00
2018-08-12T09:51:23.865Z,86944.00
2018-08-12T09:52:23.863Z,70208.00
2018-08-12T09:53:23.875Z,76000.00
2018-08-12T09:54:23.886Z,63264.00
2018-08-12T09:55:23.898Z,82176.00
2018-08-12T09:56:23.909Z,84768.00
2018-08-12T09:57:23.920Z,97504.00
2018-08-12T09:58:23.949Z,97728.00
2018-08-12T09:59:23.946Z,103904.00
2018-08-12T10:00:24.033Z,109696.00
2018-08-12T10:01:23.967Z,105632.00
2018-08-12T10:02:23.980Z,113664.00
2018-08-12T10:03:23.990Z,100704.00
2018-08-12T10:04:24.001Z,101888.00
2018-08-12T10:05:24.015Z,94304.00
2018-08-12T10:06:24.026Z,95616.00
2018-08-12T10:07:24.055Z,89216.00
2018-08-12T10:08:24.051Z,91776.00
2018-08-12T10:09:24.063Z,90880.00
2018-08-12T10:10:24.076Z,87424.00
2018-08-12T10:11:24.092Z,102048.00
2018-08-12T10:12:24.101Z,95072.00
2018-08-12T10:13:24.114Z,99712.00
2018-08-12T10:14:24.128Z,90368.00
2018-08-12T10:15:24.143Z,84224.00
2018-08-12T10:16:24.153Z,82848.00
2018-08-12T10:17:24.167Z,78912.00
2018-08-12T10:18:24.181Z,77664.00
2018-08-12T10:19:24.193Z,89440.00
2018-08-12T10:20:24.206Z,94976.00
2018-08-12T10:21:24.268Z,81856.00
2018-08-12T10:22:24.232Z,73184.00
2018-08-12T10:23:24.245Z,69248.00
2018-08-12T10:24:24.258Z,79488.00
2018-08-12T10:25:24.271Z,88800.00
2018-08-12T10:26:24.284Z,87936.00
2018-08-12T10:27:24.297Z,88896.00
2018-08-12T10:28:24.310Z,88192.00
2018-08-12T10:29:24.327Z,85696.00
2018-08-12T10:30:24.336Z,78400.00
2018-08-12T10:31:24.348Z,76160.00
2018-08-12T10:32:24.362Z,79616.00
2018-08-12T10:33:24.375Z,92544.00
2018-08-12T10:34:24.388Z,81184.00
2018-08-12T10:35:24.400Z,76672.00
2018-08-12T10:36:24.414Z,76544.00
2018-08-12T10:37:24.429Z,95648.00
2018-08-12T10:38:24.442Z,96768.00
2018-08-12T10:39:24.453Z,95392.00
2018-08-12T10:40:24.471Z,98112.00
2018-08-12T10:41:24.482Z,93984.00
2018-08-12T10:42:24.495Z,77472.00
2018-08-12T10:43:24.508Z,71232.00
2018-08-12T10:44:24.664Z,86720.00
2018-08-12T10:45:24.638Z,81024.00
2018-08-12T10:46:24.551Z,82528.00
2018-08-12T10:47:24.565Z,76352.00
2018-08-12T10:48:24.579Z,83232.00
2018-08-12T10:49:24.593Z,85856.00
2018-08-12T10:50:24.707Z,76512.00
2018-08-12T10:51:24.620Z,71616.00
2018-08-12T10:52:24.634Z,74432.00
2018-08-12T10:53:24.648Z,77632.00
2018-08-12T10:54:24.662Z,78080.00
2018-08-12T10:55:24.675Z,77312.00
2018-08-12T10:56:24.688Z,72864.00
2018-08-12T10:57:24.703Z,65664.00
2018-08-12T10:58:24.718Z,67168.00
2018-08-12T10:59:24.843Z,68832.00
2018-08-12T11:00:24.744Z,70752.00
2018-08-12T11:01:24.760Z,71296.00
2018-08-12T11:02:24.772Z,65472.00
2018-08-12T11:03:24.786Z,67584.00
2018-08-12T11:04:24.799Z,60672.00
2018-08-12T11:05:24.813Z,63264.00
2018-08-12T11:06:24.826Z,67232.00
2018-08-12T11:07:24.842Z,66912.00
2018-08-12T11:08:24.853Z,65984.00
2018-08-12T11:09:24.866Z,58976.00
2018-08-12T11:10:24.879Z,58048.00
2018-08-12T11:11:24.894Z,59584.00
2018-08-12T11:12:24.984Z,58112.00
2018-08-12T11:13:24.920Z,55968.00
2018-08-12T11:14:24.933Z,56576.00
2018-08-12T11:15:24.945Z,55296.00
2018-08-12T11:16:24.959Z,56160.00
2018-08-12T11:17:24.973Z,56864.00
2018-08-12T11:18:24.986Z,57952.00
2018-08-12T11:19:24.999Z,60352.00
2018-08-12T11:20:25.069Z,63040.00
2018-08-12T11:21:25.027Z,48960.00
2018-08-12T11:22:25.041Z,55872.00
2018-08-12T11:23:25.055Z,59552.00
2018-08-12T11:24:25.072Z,56384.00
2018-08-12T11:25:25.082Z,49856.00
2018-08-12T11:26:25.096Z,52576.00
2018-08-12T11:27:25.109Z,52448.00
2018-08-12T11:28:25.125Z,49280.00
2018-08-12T11:29:25.137Z,40192.00
2018-08-12T11:30:25.151Z,26112.00
2018-08-12T11:31:25.164Z,30976.00
2018-08-12T11:32:25.177Z,39456.00
2018-08-12T11:33:25.191Z,37376.00
2018-08-12T11:34:25.203Z,25600.00
2018-08-12T11:35:25.215Z,46336.00
2018-08-12T11:36:25.227Z,29856.00
2018-08-12T11:37:25.239Z,23520.00
2018-08-12T11:38:25.251Z,32800.00
2018-08-12T11:39:25.272Z,32512.00
2018-08-12T11:40:25.275Z,36608.00
2018-08-12T11:41:25.286Z,47168.00
2018-08-12T11:42:25.298Z,53184.00
2018-08-12T11:43:25.308Z,56416.00
2018-08-12T11:44:25.338Z,53440.00
2018-08-12T11:45:25.335Z,52992.00
2018-08-12T11:46:25.345Z,48864.00
2018-08-12T11:47:25.377Z,48224.00
2018-08-12T11:48:25.372Z,44192.00
2018-08-12T11:49:25.385Z,47840.00
2018-08-12T11:50:25.399Z,46176.00
2018-08-12T11:51:25.411Z,36576.00
2018-08-12T11:52:25.426Z,43360.00
2018-08-12T11:53:25.440Z,41216.00
2018-08-12T11:54:25.454Z,44160.00
2018-08-12T11:55:25.467Z,47136.00
2018-08-12T11:56:25.482Z,47584.00
2018-08-12T11:57:25.497Z,46688.00
2018-08-12T11:58:25.512Z,44960.00
2018-08-12T11:59:25.549Z,44320.00
2018-08-12T12:00:25.541Z,44128.00
2018-08-12T12:01:25.557Z,44224.00
2018-08-12T12:02:25.574Z,44192.00
2018-08-12T12:03:25.588Z,45312.00
2018-08-12T12:04:25.660Z,45024.00
2018-08-12T12:05:25.619Z,44448.00
2018-08-12T12:06:25.636Z,43424.00
2018-08-12T12:07:25.649Z,44448.00
2018-08-12T12:08:25.665Z,43776.00
2018-08-12T12:09:25.680Z,43392.00
2018-08-12T12:10:25.695Z,43392.00
2018-08-12T12:11:25.709Z,42336.00
2018-08-12T12:12:25.724Z,40384.00
2018-08-12T12:13:25.740Z,39424.00
2018-08-12T12:14:25.754Z,39072.00
2018-08-12T12:15:25.769Z,38176.00
2018-08-12T12:16:25.784Z,40576.00
2018-08-12T12:17:25.799Z,40000.00
2018-08-12T12:18:25.813Z,38912.00